createdAt,value
2017-09-14T00:01:34.981Z,59.20
2017-09-14T00:04:02.491Z,59.60
2017-09-14T00:06:29.967Z,59.50
2017-09-14T00:08:58.201Z,59.60
2017-09-14T00:11:25.690Z,59.50
2017-09-14T00:13:53.962Z,59.80
2017-09-14T00:16:22.198Z,59.90
2017-09-14T00:18:49.670Z,59.80
2017-09-14T00:21:17.141Z,59.80
2017-09-14T00:23:44.606Z,59.80
2017-09-14T00:26:12.925Z,60.10
2017-09-14T00:28:40.388Z,60.00
2017-09-14T00:31:07.860Z,60.10
2017-09-14T00:33:35.334Z,60.10
2017-09-14T00:36:02.854Z,60.30
2017-09-14T00:38:30.319Z,60.20
2017-09-14T00:40:57.791Z,60.30
2017-09-14T00:43:25.266Z,60.40
2017-09-14T00:45:52.738Z,60.60
2017-09-14T00:48:20.980Z,60.60
2017-09-14T00:50:48.470Z,60.40
2017-09-14T00:53:16.703Z,60.20
2017-09-14T00:55:44.175Z,60.00
2017-09-14T00:58:11.751Z,60.40
2017-09-14T01:00:39.222Z,60.20
2017-09-14T01:03:07.471Z,60.40
2017-09-14T01:05:34.943Z,60.30
2017-09-14T01:08:02.414Z,61.30
2017-09-14T01:10:30.655Z,60.50
2017-09-14T01:12:58.126Z,60.40
2017-09-14T01:15:43.336Z,60.40
2017-09-14T01:18:11.320Z,60.40
2017-09-14T01:20:38.782Z,60.10
2017-09-14T01:23:06.272Z,60.20
2017-09-14T01:25:33.746Z,60.40
2017-09-14T01:28:01.218Z,60.00
2017-09-14T01:30:29.524Z,60.10
2017-09-14T01:32:57.014Z,60.00
2017-09-14T01:35:24.490Z,59.80
2017-09-14T01:37:51.949Z,59.70
2017-09-14T01:40:20.199Z,59.80
2017-09-14T01:42:47.733Z,59.70
2017-09-14T01:45:15.240Z,59.80
2017-09-14T01:47:42.706Z,59.70
2017-09-14T01:50:10.971Z,60.00
2017-09-14T01:52:39.258Z,61.10
2017-09-14T01:55:07.498Z,60.40
2017-09-14T01:57:34.966Z,60.40
2017-09-14T02:00:02.527Z,60.80
2017-09-14T02:02:29.995Z,61.20
2017-09-14T02:04:57.500Z,61.40
2017-09-14T02:07:25.021Z,61.60
2017-09-14T02:09:53.267Z,62.30
2017-09-14T02:12:20.727Z,62.20
2017-09-14T02:14:48.204Z,62.40
2017-09-14T02:17:16.491Z,63.10
2017-09-14T02:19:44.731Z,63.20
2017-09-14T02:22:12.197Z,63.20
2017-09-14T02:24:39.665Z,63.70
2017-09-14T02:27:07.894Z,64.70
2017-09-14T02:29:35.373Z,64.10
2017-09-14T02:32:02.850Z,64.50
2017-09-14T02:34:30.428Z,64.50
2017-09-14T02:36:58.689Z,65.30
2017-09-14T02:39:26.926Z,65.10
2017-09-14T02:41:54.395Z,65.80
2017-09-14T02:44:21.867Z,65.30
2017-09-14T02:46:49.341Z,65.20
2017-09-14T02:49:17.576Z,65.20
2017-09-14T02:51:45.046Z,65.10
2017-09-14T02:54:12.614Z,65.40
2017-09-14T02:56:40.173Z,65.10
2017-09-14T02:59:07.638Z,65.70
2017-09-14T03:01:35.877Z,66.70
2017-09-14T03:04:03.474Z,66.70
2017-09-14T03:06:31.713Z,67.10
2017-09-14T03:08:59.199Z,67.10
2017-09-14T03:11:26.682Z,67.10
2017-09-14T03:13:54.159Z,67.50
2017-09-14T03:16:21.661Z,67.40
2017-09-14T03:18:49.142Z,67.50
2017-09-14T03:21:17.377Z,67.60
2017-09-14T03:23:44.850Z,67.50
2017-09-14T03:26:12.414Z,67.70
2017-09-14T03:28:39.971Z,68.10
2017-09-14T03:31:08.206Z,68.80
2017-09-14T03:33:35.685Z,68.70
2017-09-14T03:36:03.219Z,68.90
2017-09-14T03:38:30.686Z,69.40
2017-09-14T03:40:58.166Z,69.80
2017-09-14T03:43:25.629Z,69.90
2017-09-14T03:45:53.087Z,69.90
2017-09-14T03:48:20.549Z,70.10
2017-09-14T03:50:48.013Z,70.30
2017-09-14T03:53:16.254Z,70.70
2017-09-14T03:55:43.720Z,70.60
2017-09-14T03:58:11.245Z,70.60
2017-09-14T04:00:38.715Z,71.20
2017-09-14T04:03:06.178Z,71.00
2017-09-14T04:05:33.657Z,71.00
2017-09-14T04:08:01.121Z,71.50
2017-09-14T04:10:28.604Z,71.90
2017-09-14T04:12:56.066Z,71.80
2017-09-14T04:15:23.547Z,71.70
2017-09-14T04:17:51.003Z,71.70
2017-09-14T04:20:18.502Z,72.10
2017-09-14T04:22:46.734Z,72.20
2017-09-14T04:25:14.213Z,72.20
2017-09-14T04:27:41.669Z,72.30
2017-09-14T04:30:09.246Z,72.20
2017-09-14T04:32:36.803Z,72.10
2017-09-14T04:35:04.279Z,72.10
2017-09-14T04:37:32.515Z,71.70
2017-09-14T04:40:00.001Z,71.60
2017-09-14T04:42:28.244Z,72.00
2017-09-14T04:44:55.706Z,71.30
2017-09-14T04:47:23.174Z,71.20
2017-09-14T04:49:50.740Z,71.10
2017-09-14T04:52:18.218Z,71.00
2017-09-14T04:54:46.470Z,71.40
2017-09-14T04:57:13.983Z,71.30
2017-09-14T04:59:41.444Z,71.70
2017-09-14T05:02:08.942Z,71.90
2017-09-14T05:04:36.502Z,71.80
2017-09-14T05:07:03.976Z,72.60
2017-09-14T05:09:32.209Z,74.40
2017-09-14T05:11:59.686Z,74.40
2017-09-14T05:14:27.205Z,75.20
2017-09-14T05:16:54.705Z,76.90
2017-09-14T05:19:22.169Z,77.20
2017-09-14T05:21:49.718Z,77.80
2017-09-14T05:24:17.997Z,77.80
2017-09-14T05:26:45.486Z,77.70
2017-09-14T05:29:12.949Z,77.90
2017-09-14T05:31:40.426Z,78.40
2017-09-14T05:34:07.897Z,78.00
2017-09-14T05:36:35.365Z,77.70
2017-09-14T05:39:02.833Z,78.00
2017-09-14T05:41:30.409Z,77.60
2017-09-14T05:43:57.959Z,77.60
2017-09-14T05:46:25.434Z,77.80
2017-09-14T05:48:53.657Z,77.60
2017-09-14T05:51:21.137Z,77.60
2017-09-14T05:53:48.598Z,77.70
2017-09-14T05:56:16.078Z,77.60
2017-09-14T05:58:44.302Z,77.80
2017-09-14T06:01:11.886Z,77.80
2017-09-14T06:03:39.346Z,77.60
2017-09-14T06:06:06.833Z,77.40
2017-09-14T06:08:35.086Z,76.80
2017-09-14T06:11:02.554Z,76.80
2017-09-14T06:13:30.790Z,77.00
2017-09-14T06:15:58.249Z,77.00
2017-09-14T06:18:25.829Z,77.00
2017-09-14T06:20:53.287Z,76.50
2017-09-14T06:23:21.577Z,76.30
2017-09-14T06:25:49.889Z,76.50
2017-09-14T06:28:17.410Z,76.40
2017-09-14T06:30:45.641Z,76.10
2017-09-14T06:33:13.105Z,76.10
2017-09-14T06:35:40.569Z,76.40
2017-09-14T06:38:08.027Z,76.20
2017-09-14T06:40:35.586Z,75.40
2017-09-14T06:43:03.057Z,74.40
2017-09-14T06:45:30.529Z,73.70
2017-09-14T06:47:58.793Z,73.10
2017-09-14T06:50:27.144Z,74.00
2017-09-14T06:52:54.616Z,72.90
2017-09-14T06:55:22.085Z,72.60
2017-09-14T06:57:50.357Z,72.00
2017-09-14T07:00:17.926Z,71.90
2017-09-14T07:02:46.154Z,72.70
2017-09-14T07:05:13.622Z,72.60
2017-09-14T07:07:41.101Z,72.60
2017-09-14T07:10:09.123Z,72.30
2017-09-14T07:12:37.409Z,72.60
2017-09-14T07:15:04.950Z,72.40
2017-09-14T07:17:32.468Z,70.90
2017-09-14T07:19:59.965Z,71.20
2017-09-14T07:22:27.426Z,71.50
2017-09-14T07:24:54.927Z,71.50
2017-09-14T07:27:22.397Z,71.20
2017-09-14T07:29:50.637Z,70.60
2017-09-14T07:32:19.181Z,70.50
2017-09-14T07:34:46.660Z,69.90
2017-09-14T07:37:14.146Z,70.30
2017-09-14T07:39:41.621Z,69.90
2017-09-14T07:42:09.127Z,68.70
2017-09-14T07:44:36.597Z,69.00
2017-09-14T07:47:04.091Z,68.90
2017-09-14T07:49:31.651Z,68.50
2017-09-14T07:51:59.133Z,68.80
2017-09-14T07:54:26.599Z,69.60
2017-09-14T07:56:54.132Z,68.80
2017-09-14T07:59:22.399Z,68.20
2017-09-14T08:01:49.876Z,68.00
2017-09-14T08:04:18.111Z,67.40
2017-09-14T08:06:46.774Z,67.20
2017-09-14T08:09:14.253Z,67.70
2017-09-14T08:11:41.718Z,67.40
2017-09-14T08:14:09.178Z,66.60
2017-09-14T08:16:36.642Z,66.50
2017-09-14T08:19:04.560Z,66.50
2017-09-14T08:21:32.030Z,66.70
2017-09-14T08:23:59.494Z,66.40
2017-09-14T08:26:26.954Z,65.40
2017-09-14T08:28:54.421Z,64.50
2017-09-14T08:31:21.890Z,64.30
2017-09-14T08:33:49.357Z,64.20
2017-09-14T08:36:17.598Z,63.20
2017-09-14T08:38:45.065Z,63.10
2017-09-14T08:41:12.533Z,63.20
2017-09-14T08:43:40.002Z,63.50
2017-09-14T08:46:08.261Z,62.70
2017-09-14T08:48:35.733Z,62.60
2017-09-14T08:51:03.969Z,61.20
2017-09-14T08:53:31.432Z,61.10
2017-09-14T08:55:58.901Z,61.70
2017-09-14T08:58:26.378Z,61.10
2017-09-14T09:00:54.637Z,61.70
2017-09-14T09:03:22.109Z,61.60
2017-09-14T09:05:50.330Z,61.90
2017-09-14T09:08:17.802Z,61.80
2017-09-14T09:10:45.277Z,62.30
2017-09-14T09:13:12.765Z,61.60
2017-09-14T09:15:41.025Z,62.30
2017-09-14T09:18:08.525Z,62.10
2017-09-14T09:20:36.137Z,62.10
2017-09-14T09:23:03.607Z,62.40
2017-09-14T09:25:31.829Z,61.70
2017-09-14T09:27:59.308Z,61.60
2017-09-14T09:30:26.786Z,62.40
2017-09-14T09:32:54.250Z,63.10
2017-09-14T09:35:22.510Z,63.50
2017-09-14T09:37:49.977Z,63.50
2017-09-14T09:40:18.300Z,64.70
2017-09-14T09:42:45.765Z,64.00
2017-09-14T09:45:13.241Z,63.90
2017-09-14T09:47:40.721Z,63.70
2017-09-14T09:50:08.196Z,63.40
2017-09-14T09:52:36.649Z,63.00
2017-09-14T09:55:04.120Z,62.90
2017-09-14T09:57:32.366Z,63.10
2017-09-14T09:59:59.946Z,63.00
2017-09-14T10:02:27.453Z,63.20
2017-09-14T10:04:54.925Z,62.90
2017-09-14T10:07:22.393Z,62.50
2017-09-14T10:09:49.873Z,62.00
2017-09-14T10:12:17.429Z,62.40
2017-09-14T10:14:44.890Z,62.60
2017-09-14T10:17:12.373Z,62.20
2017-09-14T10:19:39.847Z,62.30
2017-09-14T10:22:07.353Z,62.50
2017-09-14T10:24:34.921Z,61.40
2017-09-14T10:27:02.399Z,61.60
2017-09-14T10:29:29.933Z,62.00
2017-09-14T10:31:57.592Z,61.70
2017-09-14T10:34:25.053Z,61.90
2017-09-14T10:36:53.303Z,61.80
2017-09-14T10:39:20.772Z,61.50
2017-09-14T10:41:48.343Z,61.50
2017-09-14T10:44:15.806Z,62.00
2017-09-14T10:46:44.066Z,61.90
2017-09-14T10:49:11.525Z,61.70
2017-09-14T10:51:38.993Z,61.20
2017-09-14T10:54:07.226Z,61.30
2017-09-14T10:56:34.700Z,61.20
2017-09-14T10:59:02.173Z,62.40
2017-09-14T11:01:29.642Z,61.40
2017-09-14T11:03:57.105Z,61.70
2017-09-14T11:06:25.352Z,63.70
2017-09-14T11:08:52.817Z,63.70
2017-09-14T11:11:20.380Z,66.20
2017-09-14T11:13:50.976Z,65.40
2017-09-14T11:16:18.602Z,65.60
2017-09-14T11:18:46.061Z,64.20
2017-09-14T11:21:13.534Z,63.50
2017-09-14T11:23:40.997Z,63.30
2017-09-14T11:26:08.487Z,63.90
2017-09-14T11:28:36.003Z,65.30
2017-09-14T11:31:03.510Z,65.60
2017-09-14T11:33:30.970Z,65.80
2017-09-14T11:35:58.520Z,67.50
2017-09-14T11:38:25.982Z,67.90
2017-09-14T11:40:53.449Z,68.30
2017-09-14T11:43:21.673Z,68.40
2017-09-14T11:45:49.151Z,68.40
2017-09-14T11:48:16.610Z,68.70
2017-09-14T11:50:44.969Z,68.70
2017-09-14T11:53:12.436Z,69.10
2017-09-14T11:55:39.898Z,68.90
2017-09-14T11:58:07.430Z,69.30
2017-09-14T12:00:34.923Z,69.40
2017-09-14T12:03:02.489Z,68.80
2017-09-14T12:05:30.037Z,69.50
2017-09-14T12:07:57.510Z,70.70
2017-09-14T12:10:25.746Z,68.90
2017-09-14T12:12:53.216Z,68.70
2017-09-14T12:15:20.690Z,68.50
2017-09-14T12:17:48.154Z,69.50
2017-09-14T12:20:15.610Z,67.60
2017-09-14T12:22:43.162Z,67.60
2017-09-14T12:25:10.622Z,67.00
2017-09-14T12:27:38.858Z,64.70
2017-09-14T12:30:06.346Z,64.50
2017-09-14T12:32:33.904Z,65.10
2017-09-14T12:35:01.389Z,63.50
2017-09-14T12:37:29.617Z,64.80
2017-09-14T12:39:57.088Z,64.70
2017-09-14T12:42:24.559Z,63.10
2017-09-14T12:44:52.109Z,61.60
2017-09-14T12:47:19.618Z,60.60
2017-09-14T12:49:47.184Z,58.80
2017-09-14T12:52:14.658Z,60.30
2017-09-14T12:54:42.138Z,58.30
2017-09-14T12:57:10.841Z,58.50
2017-09-14T12:59:39.290Z,57.80
2017-09-14T13:02:06.768Z,58.00
2017-09-14T13:04:34.358Z,58.00
2017-09-14T13:07:01.828Z,59.60
2017-09-14T13:09:29.289Z,59.20
2017-09-14T13:11:56.753Z,59.20
2017-09-14T13:14:24.306Z,59.30
2017-09-14T13:16:51.775Z,59.50
2017-09-14T13:19:19.247Z,59.60
2017-09-14T13:21:48.267Z,60.40
2017-09-14T13:24:15.734Z,58.80
2017-09-14T13:26:43.957Z,58.80
2017-09-14T13:29:11.430Z,58.70
2017-09-14T13:31:38.895Z,58.60
2017-09-14T13:34:06.374Z,58.10
2017-09-14T13:36:34.609Z,58.60
2017-09-14T13:39:02.076Z,58.50
2017-09-14T13:41:29.533Z,58.10
2017-09-14T13:43:57.120Z,58.20
2017-09-14T13:46:25.402Z,59.00
2017-09-14T13:51:26.132Z,58.00
2017-09-14T13:53:53.606Z,58.00
2017-09-14T13:56:21.838Z,59.20
2017-09-14T13:58:49.301Z,58.70
2017-09-14T14:01:16.899Z,59.10
2017-09-14T14:03:44.445Z,58.60
2017-09-14T14:06:11.905Z,58.50
2017-09-14T14:08:39.362Z,57.70
2017-09-14T14:11:07.634Z,58.20
2017-09-14T14:13:35.866Z,57.80
2017-09-14T14:16:03.341Z,57.70
2017-09-14T14:18:30.917Z,57.90
2017-09-14T14:20:58.381Z,58.80
2017-09-14T14:23:25.929Z,58.70
2017-09-14T14:25:53.402Z,59.50
2017-09-14T14:28:21.636Z,59.10
2017-09-14T14:30:49.222Z,59.10
2017-09-14T14:33:16.685Z,58.60
2017-09-14T14:35:44.150Z,57.30
2017-09-14T14:38:12.386Z,57.20
2017-09-14T14:40:39.847Z,57.20
2017-09-14T14:43:07.321Z,57.10
2017-09-14T14:45:34.787Z,56.70
2017-09-14T14:48:02.292Z,57.80
2017-09-14T14:50:29.800Z,58.10
2017-09-14T14:52:57.364Z,58.70
2017-09-14T14:55:24.830Z,58.80
2017-09-14T14:57:53.749Z,60.70
2017-09-14T15:00:21.212Z,60.60
2017-09-14T15:02:48.678Z,59.70
2017-09-14T15:05:16.138Z,60.00
2017-09-14T15:07:43.606Z,60.50
2017-09-14T15:10:11.072Z,60.10
2017-09-14T15:12:38.641Z,60.50
2017-09-14T15:15:06.099Z,62.10
2017-09-14T15:17:33.577Z,64.70
2017-09-14T15:20:01.830Z,66.70
2017-09-14T15:22:29.313Z,66.60
2017-09-14T15:24:57.549Z,68.60
2017-09-14T15:27:25.014Z,68.60
2017-09-14T15:29:52.506Z,68.80
2017-09-14T15:32:20.738Z,69.40
2017-09-14T15:34:48.267Z,69.20
2017-09-14T15:37:21.659Z,68.20
2017-09-14T15:39:54.886Z,67.50
2017-09-14T15:42:28.155Z,63.70
2017-09-14T15:45:01.422Z,58.30
2017-09-14T15:47:28.890Z,55.70
2017-09-14T15:50:02.108Z,53.50
2017-09-14T15:52:29.570Z,51.50
2017-09-14T15:54:57.030Z,53.30
2017-09-14T15:57:24.485Z,52.20
2017-09-14T15:59:51.954Z,52.00
2017-09-14T16:02:19.413Z,53.10
2017-09-14T16:04:46.924Z,52.10
2017-09-14T16:07:14.386Z,52.20
2017-09-14T16:09:42.586Z,53.00
2017-09-14T16:12:10.051Z,53.20
2017-09-14T16:14:37.514Z,54.00
2017-09-14T16:17:05.058Z,53.30
2017-09-14T16:19:32.521Z,54.30
2017-09-14T16:21:59.985Z,54.10
2017-09-14T16:24:27.457Z,53.20
2017-09-14T16:26:55.685Z,53.00
2017-09-14T16:29:23.174Z,53.00
2017-09-14T16:31:50.645Z,52.50
2017-09-14T16:34:18.926Z,53.50
2017-09-14T16:36:47.164Z,53.80
2017-09-14T16:39:14.622Z,53.80
2017-09-14T16:41:42.097Z,55.80
2017-09-14T16:44:10.346Z,59.20
2017-09-14T16:46:37.823Z,59.00
2017-09-14T16:49:05.281Z,59.40
2017-09-14T16:51:32.857Z,60.20
2017-09-14T16:54:01.581Z,63.20
2017-09-14T16:56:29.050Z,62.40
2017-09-14T16:58:56.600Z,62.90
2017-09-14T17:01:24.159Z,63.50
2017-09-14T17:03:51.618Z,63.80
2017-09-14T17:06:19.098Z,64.50
2017-09-14T17:08:46.565Z,65.10
2017-09-14T17:11:14.037Z,64.50
2017-09-14T17:13:42.394Z,65.00
2017-09-14T17:16:09.884Z,65.00
2017-09-14T17:18:38.123Z,65.50
2017-09-14T17:21:05.710Z,65.50
2017-09-14T17:23:34.033Z,66.00
2017-09-14T17:26:01.501Z,65.80
2017-09-14T17:28:28.964Z,65.90
2017-09-14T17:30:56.453Z,65.90
2017-09-14T17:33:24.686Z,67.20
2017-09-14T17:35:57.783Z,66.40
2017-09-14T17:38:25.242Z,66.70
2017-09-14T17:40:52.706Z,67.10
2017-09-14T17:43:20.174Z,67.30
2017-09-14T17:45:47.733Z,68.50
2017-09-14T17:48:15.202Z,68.20
2017-09-14T17:50:43.446Z,68.90
2017-09-14T17:53:10.990Z,68.80
2017-09-14T17:55:38.538Z,69.70
2017-09-14T17:58:06.038Z,69.90
2017-09-14T18:00:33.607Z,69.50
2017-09-14T18:03:01.285Z,69.30
2017-09-14T18:05:29.534Z,69.30
2017-09-14T18:07:57.197Z,69.30
2017-09-14T18:10:24.654Z,70.00
2017-09-14T18:12:52.125Z,70.50
2017-09-14T18:15:20.414Z,70.00
2017-09-14T18:17:48.655Z,70.20
2017-09-14T18:20:16.217Z,70.10
2017-09-14T18:22:43.835Z,70.50
2017-09-14T18:25:11.299Z,69.90
2017-09-14T18:27:38.820Z,70.50
2017-09-14T18:30:07.047Z,70.80
2017-09-14T18:32:34.510Z,70.80
2017-09-14T18:35:01.986Z,70.90
2017-09-14T18:37:29.450Z,71.30
2017-09-14T18:39:56.918Z,71.50
2017-09-14T18:42:25.170Z,71.80
2017-09-14T18:44:52.787Z,71.80
2017-09-14T18:47:20.266Z,71.90
2017-09-14T18:49:47.746Z,71.90
2017-09-14T18:52:15.227Z,72.10
2017-09-14T18:54:43.472Z,72.10
2017-09-14T18:57:10.942Z,72.10
2017-09-14T18:59:39.183Z,72.70
2017-09-14T19:02:06.670Z,72.60
2017-09-14T19:04:34.140Z,72.70
2017-09-14T19:07:02.382Z,72.50
2017-09-14T19:09:29.853Z,72.40
2017-09-14T19:11:57.314Z,72.50
2017-09-14T19:14:24.784Z,72.70
2017-09-14T19:16:53.045Z,72.50
2017-09-14T19:19:20.600Z,72.50
2017-09-14T19:21:48.157Z,72.60
2017-09-14T19:24:15.776Z,72.60
2017-09-14T19:26:43.292Z,72.30
2017-09-14T19:29:11.551Z,71.80
2017-09-14T19:31:39.036Z,71.20
2017-09-14T19:34:07.271Z,71.10
2017-09-14T19:36:34.737Z,71.10
2017-09-14T19:39:02.212Z,71.30
2017-09-14T19:41:30.467Z,70.90
2017-09-14T19:43:59.526Z,70.90
2017-09-14T19:46:27.005Z,70.90
2017-09-14T19:48:54.586Z,70.90
2017-09-14T19:51:22.069Z,70.60
2017-09-14T19:53:49.534Z,70.70
2017-09-14T19:56:17.010Z,70.60
2017-09-14T19:58:44.481Z,70.50
2017-09-14T20:01:11.966Z,70.80
2017-09-14T20:03:39.458Z,70.40
2017-09-14T20:06:06.949Z,70.00
2017-09-14T20:08:34.418Z,70.10
2017-09-14T20:11:01.898Z,70.30
2017-09-14T20:13:29.386Z,70.20
2017-09-14T20:15:56.862Z,69.60
2017-09-14T20:18:24.330Z,70.00
2017-09-14T20:20:51.825Z,69.90
2017-09-14T20:23:19.338Z,69.60
2017-09-14T20:25:46.814Z,69.50
2017-09-14T20:28:14.453Z,69.20
2017-09-14T20:30:41.926Z,69.40
2017-09-14T20:33:09.412Z,69.20
2017-09-14T20:35:36.883Z,69.00
2017-09-14T20:38:05.122Z,69.20
2017-09-14T20:40:32.598Z,69.20
2017-09-14T20:43:00.081Z,68.90
2017-09-14T20:45:28.318Z,69.10
2017-09-14T20:47:55.814Z,69.00
2017-09-14T20:50:24.045Z,69.30
2017-09-14T20:52:51.519Z,68.50
2017-09-14T20:55:19.023Z,68.40
2017-09-14T20:57:46.498Z,68.40
2017-09-14T21:00:13.966Z,68.20
2017-09-14T21:02:41.443Z,68.00
2017-09-14T21:05:08.916Z,68.20
2017-09-14T21:07:37.145Z,67.90
2017-09-14T21:10:04.695Z,67.80
2017-09-14T21:12:32.193Z,68.20
2017-09-14T21:14:59.675Z,67.80
2017-09-14T21:17:27.984Z,68.00
2017-09-14T21:19:55.485Z,68.00
2017-09-14T21:22:22.999Z,67.80
2017-09-14T21:24:50.465Z,67.70
2017-09-14T21:27:17.934Z,67.70
2017-09-14T21:29:45.522Z,67.70
2017-09-14T21:32:13.765Z,67.00
2017-09-14T21:34:41.353Z,67.50
2017-09-14T21:37:08.915Z,67.70
2017-09-14T21:39:36.383Z,67.50
2017-09-14T21:42:04.650Z,67.10
2017-09-14T21:44:32.895Z,67.20
2017-09-14T21:47:00.353Z,67.10
2017-09-14T21:49:28.300Z,67.00
2017-09-14T21:51:55.769Z,67.10
2017-09-14T21:54:23.252Z,66.80
2017-09-14T21:56:50.730Z,67.00
2017-09-14T21:59:18.969Z,67.30
2017-09-14T22:01:46.448Z,67.10
2017-09-14T22:04:13.914Z,67.20
2017-09-14T22:06:42.162Z,67.30
2017-09-14T22:09:09.743Z,67.10
2017-09-14T22:11:37.302Z,66.90
2017-09-14T22:14:05.551Z,67.60
2017-09-14T22:16:33.043Z,67.50
2017-09-14T22:19:01.277Z,67.70
2017-09-14T22:21:28.774Z,67.60
2017-09-14T22:23:57.010Z,68.00
2017-09-14T22:26:24.482Z,67.90
2017-09-14T22:28:53.469Z,68.10
2017-09-14T22:31:20.947Z,68.10
2017-09-14T22:33:49.177Z,69.70
2017-09-14T22:36:16.670Z,69.00
2017-09-14T22:38:44.156Z,69.60
2017-09-14T22:41:11.638Z,69.90
2017-09-14T22:43:39.106Z,70.30
2017-09-14T22:46:06.601Z,70.60
2017-09-14T22:48:34.079Z,71.50
2017-09-14T22:51:02.341Z,73.40
2017-09-14T22:53:30.569Z,74.60
2017-09-14T22:55:58.063Z,74.50
2017-09-14T22:58:25.527Z,75.70
2017-09-14T23:00:53.849Z,77.10
2017-09-14T23:03:21.314Z,76.50
2017-09-14T23:05:48.793Z,76.90
2017-09-14T23:08:16.371Z,77.80
2017-09-14T23:10:44.699Z,78.50
2017-09-14T23:13:12.180Z,78.20
2017-09-14T23:15:39.647Z,78.80
2017-09-14T23:18:07.130Z,78.70
2017-09-14T23:20:35.357Z,79.30
2017-09-14T23:23:02.859Z,79.20
2017-09-14T23:25:31.131Z,79.50
2017-09-14T23:27:58.606Z,78.60
2017-09-14T23:30:26.838Z,78.50
2017-09-14T23:32:54.319Z,78.30
2017-09-14T23:35:21.924Z,78.50
2017-09-14T23:37:49.412Z,78.80
2017-09-14T23:40:17.005Z,78.90
2017-09-14T23:42:45.254Z,78.70
2017-09-14T23:45:14.260Z,78.70
2017-09-14T23:47:41.822Z,78.70
2017-09-14T23:50:10.094Z,79.10
2017-09-14T23:52:37.569Z,79.00
2017-09-14T23:55:05.826Z,79.30
2017-09-14T23:57:34.082Z,79.30
